createdAt,value
2023-05-10T00:00:23.429Z,0.40
2023-05-10T00:02:50.699Z,0.20
2023-05-10T00:05:17.619Z,0.32
2023-05-10T00:07:47.072Z,0.50
2023-05-10T00:10:14.054Z,0.47
2023-05-10T00:12:41.085Z,0.40
2023-05-10T00:15:08.676Z,0.20
2023-05-10T00:17:35.709Z,0.40
2023-05-10T00:20:02.566Z,0.30
2023-05-10T00:22:29.174Z,0.20
2023-05-10T00:24:55.892Z,0.32
2023-05-10T00:27:22.436Z,0.40
2023-05-10T00:29:49.022Z,0.30
2023-05-10T00:32:15.953Z,0.30
2023-05-10T00:34:43.542Z,0.30
2023-05-10T00:37:10.082Z,0.30
2023-05-10T00:39:36.755Z,0.70
2023-05-10T00:42:03.547Z,0.32
2023-05-10T00:44:31.754Z,0.20
2023-05-10T00:46:59.833Z,0.17
2023-05-10T00:49:27.893Z,0.30
2023-05-10T00:51:54.552Z,0.20
2023-05-10T00:54:21.717Z,0.20
2023-05-10T00:56:50.091Z,0.30
2023-05-10T00:59:18.696Z,0.32
2023-05-10T01:01:46.577Z,0.10
2023-05-10T01:04:14.595Z,0.20
2023-05-10T01:06:42.716Z,0.20
2023-05-10T01:09:09.515Z,0.40
2023-05-10T01:11:37.787Z,0.22
2023-05-10T01:14:04.975Z,0.28
2023-05-10T01:16:39.172Z,0.47
2023-05-10T01:19:13.038Z,0.20
2023-05-10T01:22:07.312Z,0.25
2023-05-10T01:24:59.142Z,0.32
2023-05-10T01:30:29.126Z,0.30
2023-05-10T01:33:20.062Z,0.20
2023-05-10T01:35:58.719Z,0.30
2023-05-10T01:38:42.424Z,0.28
2023-05-10T01:41:21.051Z,0.28
2023-05-10T01:43:51.210Z,0.30
2023-05-10T01:46:25.741Z,0.10
2023-05-10T01:48:58.458Z,0.20
2023-05-10T01:51:26.975Z,0.10
2023-05-10T01:54:01.756Z,0.20
2023-05-10T01:56:31.883Z,0.20
2023-05-10T01:59:01.021Z,0.22
2023-05-10T02:01:28.357Z,0.25
2023-05-10T02:03:56.755Z,0.30
2023-05-10T02:06:25.977Z,0.10
2023-05-10T02:08:54.722Z,0.30
2023-05-10T02:11:22.451Z,0.22
2023-05-10T02:13:51.396Z,0.20
2023-05-10T02:16:22.816Z,0.30
2023-05-10T02:18:50.752Z,0.28
2023-05-10T02:21:18.784Z,0.30
2023-05-10T02:23:46.705Z,0.15
2023-05-10T02:26:14.892Z,0.10
2023-05-10T02:28:44.204Z,0.10
2023-05-10T02:31:11.499Z,0.10
2023-05-10T02:33:41.542Z,0.15
2023-05-10T02:36:11.253Z,0.20
2023-05-10T02:38:38.562Z,0.03
2023-05-10T02:41:06.889Z,0.20
2023-05-10T02:43:34.733Z,0.10
2023-05-10T02:46:01.664Z,0.20
2023-05-10T02:48:29.064Z,0.20
2023-05-10T02:51:01.549Z,0.20
2023-05-10T02:53:36.700Z,0.10
2023-05-10T02:56:10.240Z,0.20
2023-05-10T02:58:37.261Z,0.10
2023-05-10T03:01:04.205Z,0.13
2023-05-10T03:03:30.839Z,0.20
2023-05-10T03:05:58.887Z,0.10
2023-05-10T03:08:25.925Z,0.10
2023-05-10T03:11:00.930Z,0.10
2023-05-10T03:13:40.668Z,0.10
2023-05-10T03:16:23.307Z,0.13
2023-05-10T03:18:57.821Z,0.10
2023-05-10T03:21:29.832Z,0.20
2023-05-10T03:24:13.280Z,0.15
2023-05-10T03:26:41.893Z,0.17
2023-05-10T03:29:15.128Z,0.13
2023-05-10T03:31:42.078Z,0.13
2023-05-10T03:34:08.808Z,0.32
2023-05-10T03:36:35.416Z,0.10
2023-05-10T03:39:02.142Z,0.05
2023-05-10T03:41:29.419Z,0.13
2023-05-10T03:43:56.007Z,0.10
2023-05-10T03:46:22.599Z,0.10
2023-05-10T03:48:49.333Z,0.20
2023-05-10T03:51:15.887Z,0.20
2023-05-10T03:53:42.464Z,0.17
2023-05-10T03:56:09.021Z,0.10
2023-05-10T03:58:36.325Z,0.20
2023-05-10T04:01:03.421Z,0.20
2023-05-10T04:03:30.560Z,0.30
2023-05-10T04:06:03.754Z,0.10
2023-05-10T04:08:30.784Z,0.10
2023-05-10T04:11:10.848Z,0.00
2023-05-10T04:13:37.854Z,0.00
2023-05-10T04:16:05.199Z,0.10
2023-05-10T04:18:32.702Z,0.10
2023-05-10T04:20:59.277Z,0.10
2023-05-10T04:23:25.917Z,0.10
2023-05-10T04:25:52.465Z,0.13
2023-05-10T04:28:19.355Z,0.20
2023-05-10T04:30:46.707Z,0.10
2023-05-10T04:33:13.330Z,0.10
2023-05-10T04:35:40.991Z,0.10
2023-05-10T04:38:07.848Z,0.35
2023-05-10T04:40:35.172Z,0.10
2023-05-10T04:43:02.080Z,0.10
2023-05-10T04:45:28.739Z,0.10
2023-05-10T04:47:55.389Z,0.15
2023-05-10T04:50:22.003Z,0.10
2023-05-10T04:52:48.592Z,0.30
2023-05-10T04:55:15.234Z,0.10
2023-05-10T04:57:41.796Z,0.20
2023-05-10T05:00:09.273Z,0.25
2023-05-10T05:02:36.036Z,0.10
2023-05-10T05:05:03.035Z,0.28
2023-05-10T05:07:29.791Z,0.20
2023-05-10T05:09:56.331Z,0.15
2023-05-10T05:12:22.849Z,0.15
2023-05-10T05:14:49.611Z,0.20
2023-05-10T05:17:16.261Z,0.20
2023-05-10T05:19:42.850Z,0.20
2023-05-10T05:22:09.810Z,0.10
2023-05-10T05:24:39.027Z,0.17
2023-05-10T05:27:05.837Z,0.28
2023-05-10T05:29:32.808Z,0.17
2023-05-10T05:31:59.550Z,0.20
2023-05-10T05:34:26.188Z,0.28
2023-05-10T05:36:52.836Z,0.20
2023-05-10T05:39:19.526Z,0.28
2023-05-10T05:41:47.137Z,0.60
2023-05-10T05:44:13.685Z,0.20
2023-05-10T05:46:40.378Z,0.13
2023-05-10T05:49:06.938Z,0.10
2023-05-10T05:51:33.610Z,0.20
2023-05-10T05:54:00.202Z,0.10
2023-05-10T05:56:26.816Z,0.20
2023-05-10T05:58:53.886Z,0.20
2023-05-10T06:01:20.680Z,0.30
2023-05-10T06:03:47.427Z,0.20
2023-05-10T06:06:14.361Z,0.30
2023-05-10T06:08:41.178Z,0.25
2023-05-10T06:11:07.722Z,0.35
2023-05-10T06:13:36.164Z,0.30
2023-05-10T06:16:03.696Z,0.20
2023-05-10T06:18:30.300Z,0.30
2023-05-10T06:20:57.070Z,0.30
2023-05-10T06:23:23.629Z,0.45
2023-05-10T06:25:50.577Z,0.47
2023-05-10T06:28:17.198Z,0.40
2023-05-10T06:30:44.233Z,0.40
2023-05-10T06:33:10.927Z,0.17
2023-05-10T06:35:37.791Z,0.22
2023-05-10T06:38:04.360Z,0.40
2023-05-10T06:40:31.256Z,0.32
2023-05-10T06:42:57.837Z,0.30
2023-05-10T06:45:24.384Z,0.40
2023-05-10T06:47:51.126Z,0.30
2023-05-10T06:50:17.749Z,0.20
2023-05-10T06:52:44.646Z,0.20
2023-05-10T06:55:11.561Z,0.30
2023-05-10T06:57:38.198Z,0.32
2023-05-10T07:00:05.848Z,0.20
2023-05-10T07:02:32.671Z,0.30
2023-05-10T07:05:01.685Z,0.20
2023-05-10T07:07:29.866Z,0.30
2023-05-10T07:09:57.618Z,0.40
2023-05-10T07:12:25.055Z,0.20
2023-05-10T07:14:51.683Z,0.22
2023-05-10T07:17:18.493Z,0.22
2023-05-10T07:19:45.282Z,0.25
2023-05-10T07:22:12.160Z,0.20
2023-05-10T07:24:38.794Z,0.50
2023-05-10T07:27:05.473Z,0.30
2023-05-10T07:29:32.157Z,0.30
2023-05-10T07:31:59.088Z,0.30
2023-05-10T07:34:26.029Z,0.20
2023-05-10T07:36:53.432Z,0.20
2023-05-10T07:39:27.303Z,0.20
2023-05-10T07:41:55.680Z,0.50
2023-05-10T07:44:22.369Z,0.30
2023-05-10T07:46:49.531Z,0.57
2023-05-10T07:49:16.298Z,0.20
2023-05-10T07:51:43.621Z,0.20
2023-05-10T07:54:10.448Z,0.35
2023-05-10T07:56:37.138Z,0.40
2023-05-10T07:59:08.791Z,0.20
2023-05-10T08:01:36.777Z,0.20
2023-05-10T08:04:03.626Z,0.20
2023-05-10T08:06:31.022Z,0.43
2023-05-10T08:08:58.220Z,0.20
2023-05-10T08:11:25.928Z,0.20
2023-05-10T08:13:53.868Z,0.22
2023-05-10T08:16:21.176Z,0.28
2023-05-10T08:18:48.273Z,0.25
2023-05-10T08:21:15.574Z,0.22
2023-05-10T08:23:42.249Z,0.73
2023-05-10T08:26:08.935Z,0.22
2023-05-10T08:28:35.598Z,0.40
2023-05-10T08:31:02.285Z,0.40
2023-05-10T08:33:28.856Z,0.10
2023-05-10T08:35:55.424Z,0.30
2023-05-10T08:38:22.007Z,0.30
2023-05-10T08:40:51.696Z,0.30
2023-05-10T08:43:19.317Z,0.30
2023-05-10T08:45:48.891Z,0.30
2023-05-10T08:48:16.480Z,0.28
2023-05-10T08:50:44.005Z,0.50
2023-05-10T08:53:16.025Z,0.20
2023-05-10T08:55:43.737Z,0.68
2023-05-10T08:58:11.073Z,0.30
2023-05-10T09:00:38.609Z,0.20
2023-05-10T09:03:06.729Z,0.20
2023-05-10T09:05:34.052Z,0.20
2023-05-10T09:08:01.541Z,0.20
2023-05-10T09:10:30.332Z,0.08
2023-05-10T09:12:59.360Z,0.55
2023-05-10T09:15:26.742Z,0.40
2023-05-10T09:17:53.435Z,0.28
2023-05-10T09:20:20.253Z,0.15
2023-05-10T09:22:47.223Z,0.10
2023-05-10T09:25:18.115Z,0.10
2023-05-10T09:30:29.375Z,0.08
2023-05-10T09:32:57.263Z,0.20
2023-05-10T09:35:28.007Z,0.20
2023-05-10T09:37:59.210Z,0.25
2023-05-10T09:40:27.715Z,0.30
2023-05-10T09:43:08.580Z,0.22
2023-05-10T09:45:38.560Z,0.17
2023-05-10T09:48:06.206Z,0.20
2023-05-10T09:50:33.030Z,0.20
2023-05-10T09:53:03.699Z,0.20
2023-05-10T09:55:39.436Z,0.10
2023-05-10T09:58:10.399Z,0.20
2023-05-10T10:00:39.292Z,0.20
2023-05-10T10:03:06.527Z,0.52
2023-05-10T10:05:37.166Z,0.20
2023-05-10T10:08:05.723Z,0.47
2023-05-10T10:10:33.882Z,0.20
2023-05-10T10:13:00.877Z,0.20
2023-05-10T10:15:27.732Z,0.20
2023-05-10T10:17:54.954Z,0.30
2023-05-10T10:20:23.580Z,0.25
2023-05-10T10:22:50.751Z,0.50
2023-05-10T10:25:19.904Z,0.40
2023-05-10T10:27:52.743Z,0.30
2023-05-10T10:30:43.613Z,0.30
2023-05-10T10:33:38.821Z,0.50
2023-05-10T10:36:07.308Z,0.20
2023-05-10T10:38:49.337Z,0.22
2023-05-10T10:41:31.733Z,0.30
2023-05-10T10:44:23.555Z,0.20
2023-05-10T10:47:25.491Z,0.32
2023-05-10T10:49:55.888Z,0.45
2023-05-10T10:52:44.288Z,0.50
2023-05-10T10:55:23.357Z,0.38
2023-05-10T10:58:07.730Z,0.40
2023-05-10T11:00:37.925Z,0.57
2023-05-10T11:03:09.535Z,0.60
2023-05-10T11:05:47.284Z,0.40
2023-05-10T11:08:21.906Z,0.57
2023-05-10T11:11:01.692Z,0.68
2023-05-10T11:13:31.246Z,0.57
2023-05-10T11:15:58.810Z,0.60
2023-05-10T11:18:28.480Z,0.80
2023-05-10T11:21:04.271Z,0.60
2023-05-10T11:23:40.867Z,0.90
2023-05-10T11:26:12.020Z,1.00
2023-05-10T11:28:45.489Z,0.98
2023-05-10T11:31:15.115Z,0.98
2023-05-10T11:33:52.777Z,1.08
2023-05-10T11:36:30.391Z,0.70
2023-05-10T11:38:57.852Z,2.05
2023-05-10T11:41:25.478Z,1.27
2023-05-10T11:43:56.437Z,1.20
2023-05-10T11:46:25.466Z,1.45
2023-05-10T11:48:58.839Z,1.08
2023-05-10T11:51:26.388Z,0.93
2023-05-10T11:53:57.485Z,0.50
2023-05-10T11:56:24.509Z,0.40
2023-05-10T11:58:58.658Z,0.30
2023-05-10T12:01:27.388Z,0.22
2023-05-10T12:03:59.635Z,0.40
2023-05-10T12:06:36.516Z,0.30
2023-05-10T12:09:06.903Z,1.02
2023-05-10T12:11:37.283Z,0.50
2023-05-10T12:14:06.142Z,0.30
2023-05-10T12:16:32.789Z,0.40
2023-05-10T12:19:01.624Z,0.50
2023-05-10T12:21:29.990Z,0.63
2023-05-10T12:24:01.996Z,1.33
2023-05-10T12:26:29.230Z,0.60
2023-05-10T12:29:12.159Z,0.63
2023-05-10T12:31:56.188Z,0.57
2023-05-10T12:34:32.994Z,0.80
2023-05-10T12:37:00.844Z,1.23
2023-05-10T12:39:27.409Z,0.50
2023-05-10T12:41:54.284Z,0.70
2023-05-10T12:44:20.964Z,0.90
2023-05-10T12:46:47.526Z,0.60
2023-05-10T12:49:14.221Z,0.73
2023-05-10T12:51:40.810Z,0.90
2023-05-10T12:54:07.486Z,0.70
2023-05-10T12:56:34.075Z,0.45
2023-05-10T12:59:00.795Z,0.45
2023-05-10T13:01:27.688Z,0.50
2023-05-10T13:03:54.325Z,0.68
2023-05-10T13:06:21.112Z,0.90
2023-05-10T13:08:47.656Z,0.43
2023-05-10T13:11:17.584Z,0.40
2023-05-10T13:13:44.267Z,0.38
2023-05-10T13:16:10.921Z,0.60
2023-05-10T13:18:37.790Z,0.30
2023-05-10T13:21:06.352Z,0.68
2023-05-10T13:23:33.185Z,0.20
2023-05-10T13:25:59.786Z,0.32
2023-05-10T13:28:27.336Z,0.43
2023-05-10T13:30:54.163Z,0.43
2023-05-10T13:33:20.917Z,0.35
2023-05-10T13:35:47.833Z,0.32
2023-05-10T13:38:14.757Z,0.30
2023-05-10T13:40:41.635Z,0.30
2023-05-10T13:43:08.272Z,0.40
2023-05-10T13:45:34.854Z,0.20
2023-05-10T13:48:01.543Z,0.30
2023-05-10T13:50:28.196Z,0.30
2023-05-10T13:52:55.019Z,0.20
2023-05-10T13:55:21.758Z,0.20
2023-05-10T13:57:48.503Z,0.25
2023-05-10T14:00:16.141Z,0.10
2023-05-10T14:02:42.965Z,0.28
2023-05-10T14:05:09.801Z,0.70
2023-05-10T14:07:36.604Z,0.52
2023-05-10T14:10:03.803Z,0.50
2023-05-10T14:12:30.648Z,0.73
2023-05-10T14:14:57.590Z,0.77
2023-05-10T14:17:24.360Z,1.20
2023-05-10T14:19:50.969Z,1.13
2023-05-10T14:22:17.698Z,1.50
2023-05-10T14:24:47.628Z,0.40
2023-05-10T14:27:14.292Z,0.40
2023-05-10T14:29:40.926Z,0.65
2023-05-10T14:32:07.575Z,0.47
2023-05-10T14:34:34.634Z,0.40
2023-05-10T14:37:01.216Z,0.30
2023-05-10T14:39:30.576Z,0.52
2023-05-10T14:41:57.795Z,0.40
2023-05-10T14:44:24.750Z,0.30
2023-05-10T14:46:51.714Z,0.20
2023-05-10T14:49:18.247Z,0.32
2023-05-10T14:51:45.938Z,0.50
2023-05-10T14:54:12.548Z,0.50
2023-05-10T14:56:39.344Z,0.43
2023-05-10T14:59:06.750Z,0.40
2023-05-10T15:01:35.649Z,0.40
2023-05-10T15:04:02.720Z,0.38
2023-05-10T15:06:33.708Z,0.43
2023-05-10T15:09:00.836Z,0.70
2023-05-10T15:11:27.729Z,0.70
2023-05-10T15:13:54.589Z,0.82
2023-05-10T15:16:22.060Z,0.60
2023-05-10T15:18:49.382Z,0.65
2023-05-10T15:21:16.064Z,0.50
2023-05-10T15:23:42.617Z,0.30
2023-05-10T15:26:09.312Z,0.35
2023-05-10T15:28:35.894Z,0.30
2023-05-10T15:31:02.597Z,1.35
2023-05-10T15:33:29.758Z,0.40
2023-05-10T15:35:56.704Z,0.30
2023-05-10T15:38:23.551Z,0.43
2023-05-10T15:40:50.116Z,0.40
2023-05-10T15:43:17.372Z,0.40
2023-05-10T15:45:43.895Z,0.80
2023-05-10T15:48:10.704Z,0.50
2023-05-10T15:50:37.374Z,0.40
2023-05-10T15:53:03.942Z,0.60
2023-05-10T15:55:31.020Z,0.40
2023-05-10T15:57:57.570Z,0.57
2023-05-10T16:00:24.278Z,1.60
2023-05-10T16:02:54.049Z,1.48
2023-05-10T16:05:20.852Z,1.30
2023-05-10T16:07:47.678Z,0.40
2023-05-10T16:10:14.253Z,0.90
2023-05-10T16:12:40.896Z,0.82
2023-05-10T16:15:08.512Z,1.10
2023-05-10T16:17:35.128Z,0.63
2023-05-10T16:20:01.864Z,0.80
2023-05-10T16:22:29.053Z,0.77
2023-05-10T16:24:57.424Z,0.50
2023-05-10T16:27:24.039Z,0.60
2023-05-10T16:29:50.602Z,0.50
2023-05-10T16:32:17.142Z,0.40
2023-05-10T16:34:43.882Z,0.50
2023-05-10T16:37:11.185Z,0.40
2023-05-10T16:39:37.773Z,0.30
2023-05-10T16:42:04.462Z,0.20
2023-05-10T16:44:31.100Z,0.30
2023-05-10T16:46:58.224Z,0.20
2023-05-10T16:49:26.193Z,0.28
2023-05-10T16:51:53.285Z,0.30
2023-05-10T16:54:21.378Z,0.30
2023-05-10T16:56:48.040Z,0.50
2023-05-10T16:59:14.575Z,0.30
2023-05-10T17:01:41.240Z,0.55
2023-05-10T17:04:08.155Z,0.45
2023-05-10T17:06:36.802Z,0.30
2023-05-10T17:09:04.135Z,0.30
2023-05-10T17:11:31.040Z,0.45
2023-05-10T17:13:59.295Z,0.30
2023-05-10T17:16:25.847Z,0.40
2023-05-10T17:18:52.850Z,0.30
2023-05-10T17:21:19.885Z,0.45
2023-05-10T17:23:46.678Z,0.38
2023-05-10T17:26:13.348Z,3.95
2023-05-10T17:28:39.917Z,2.42
2023-05-10T17:31:06.534Z,3.00
2023-05-10T17:33:33.240Z,2.50
2023-05-10T17:35:59.772Z,0.75
2023-05-10T17:38:26.487Z,2.20
2023-05-10T17:40:53.073Z,2.13
2023-05-10T17:43:20.194Z,0.90
2023-05-10T17:45:49.957Z,0.60
2023-05-10T17:48:17.238Z,1.08
2023-05-10T17:50:44.477Z,1.60
2023-05-10T17:53:11.573Z,0.60
2023-05-10T17:55:41.989Z,0.88
2023-05-10T17:58:10.816Z,0.70
2023-05-10T18:00:38.132Z,0.57
2023-05-10T18:03:07.535Z,0.70
2023-05-10T18:05:38.809Z,0.65
2023-05-10T18:08:06.067Z,0.85
2023-05-10T18:10:33.726Z,0.82
2023-05-10T18:13:02.277Z,0.50
2023-05-10T18:15:29.094Z,0.80
2023-05-10T18:17:56.792Z,0.52
2023-05-10T18:20:23.804Z,1.00
2023-05-10T18:22:50.452Z,1.20
2023-05-10T18:25:17.690Z,0.80
2023-05-10T18:27:44.422Z,1.10
2023-05-10T18:30:12.423Z,1.08
2023-05-10T18:32:39.607Z,0.55
2023-05-10T18:35:07.685Z,0.65
2023-05-10T18:37:35.071Z,0.80
2023-05-10T18:40:01.744Z,0.50
2023-05-10T18:42:28.437Z,0.50
2023-05-10T18:44:55.714Z,0.70
2023-05-10T18:47:22.618Z,1.10
2023-05-10T18:49:49.326Z,0.80
2023-05-10T18:52:16.099Z,0.88
2023-05-10T18:54:43.038Z,0.90
2023-05-10T18:57:09.706Z,0.70
2023-05-10T18:59:36.421Z,0.90
2023-05-10T19:02:03.064Z,0.75
2023-05-10T19:04:29.833Z,1.05
2023-05-10T19:06:56.733Z,1.08
2023-05-10T19:09:23.681Z,0.77
2023-05-10T19:11:51.449Z,1.20
2023-05-10T19:14:18.139Z,1.42
2023-05-10T19:16:49.526Z,0.85
2023-05-10T19:21:43.042Z,0.90
2023-05-10T19:24:10.031Z,1.02
2023-05-10T19:26:36.884Z,0.80
2023-05-10T19:29:03.616Z,1.00
2023-05-10T19:31:30.431Z,0.77
2023-05-10T19:33:59.950Z,1.00
2023-05-10T19:36:27.269Z,1.00
2023-05-10T19:38:53.928Z,1.33
2023-05-10T19:41:20.628Z,0.80
2023-05-10T19:43:47.514Z,1.13
2023-05-10T19:46:15.698Z,0.70
2023-05-10T19:48:44.018Z,1.13
2023-05-10T19:51:13.343Z,1.00
2023-05-10T19:53:44.170Z,1.00
2023-05-10T19:56:11.283Z,0.90
2023-05-10T19:58:37.821Z,0.90
2023-05-10T20:01:07.412Z,0.65
2023-05-10T20:03:34.757Z,0.68
2023-05-10T20:06:02.035Z,1.00
2023-05-10T20:08:28.896Z,0.90
2023-05-10T20:10:58.812Z,0.93
2023-05-10T20:13:25.639Z,0.80
2023-05-10T20:15:56.057Z,0.95
2023-05-10T20:18:23.298Z,0.65
2023-05-10T20:20:57.913Z,0.80
2023-05-10T20:23:24.506Z,0.95
2023-05-10T20:25:51.296Z,0.60
2023-05-10T20:28:25.307Z,0.75
2023-05-10T20:30:53.808Z,0.85
2023-05-10T20:33:21.550Z,1.40
2023-05-10T20:35:48.599Z,0.50
2023-05-10T20:38:15.315Z,0.70
2023-05-10T20:40:42.221Z,0.60
2023-05-10T20:43:08.886Z,0.60
2023-05-10T20:45:37.559Z,0.47
2023-05-10T20:48:05.176Z,0.60
2023-05-10T20:50:31.796Z,0.60
2023-05-10T20:52:58.352Z,0.60
2023-05-10T20:55:25.024Z,0.60
2023-05-10T20:57:51.819Z,0.63
2023-05-10T21:00:18.805Z,0.68
2023-05-10T21:02:46.291Z,0.57
2023-05-10T21:05:12.989Z,0.77
2023-05-10T21:07:39.875Z,0.70
2023-05-10T21:10:08.336Z,0.50
2023-05-10T21:12:34.963Z,0.95
2023-05-10T21:15:01.673Z,0.50
2023-05-10T21:17:28.345Z,0.60
2023-05-10T21:19:55.299Z,0.40
2023-05-10T21:22:21.819Z,0.30
2023-05-10T21:24:48.651Z,0.50
2023-05-10T21:27:15.221Z,0.60
2023-05-10T21:29:42.069Z,0.55
2023-05-10T21:32:09.686Z,0.60
2023-05-10T21:34:36.420Z,0.50
2023-05-10T21:37:03.122Z,0.55
2023-05-10T21:39:29.853Z,0.50
2023-05-10T21:41:56.398Z,0.38
2023-05-10T21:44:22.963Z,0.38
2023-05-10T21:46:49.640Z,0.38
2023-05-10T21:49:16.598Z,0.38
2023-05-10T21:51:43.136Z,0.50
2023-05-10T21:54:09.866Z,0.65
2023-05-10T21:56:37.046Z,0.63
2023-05-10T21:59:04.328Z,0.43
2023-05-10T22:01:31.079Z,0.63
2023-05-10T22:03:57.636Z,0.50
2023-05-10T22:06:24.326Z,0.68
2023-05-10T22:08:51.079Z,0.43
2023-05-10T22:11:17.806Z,1.27
2023-05-10T22:13:44.739Z,0.52
2023-05-10T22:16:11.282Z,0.40
2023-05-10T22:18:37.880Z,0.50
2023-05-10T22:21:04.641Z,0.50
2023-05-10T22:23:31.513Z,0.47
2023-05-10T22:26:02.582Z,0.60
2023-05-10T22:28:29.782Z,0.70
2023-05-10T22:30:56.559Z,0.52
2023-05-10T22:33:23.323Z,0.73
2023-05-10T22:35:50.038Z,0.50
2023-05-10T22:38:16.647Z,0.60
2023-05-10T22:40:43.166Z,0.52
2023-05-10T22:43:09.941Z,0.60
2023-05-10T22:45:36.481Z,0.55
2023-05-10T22:48:08.432Z,0.63
2023-05-10T22:50:36.842Z,0.57
2023-05-10T22:53:03.406Z,0.60
2023-05-10T22:55:30.454Z,0.88
2023-05-10T22:57:57.071Z,0.70
2023-05-10T23:00:23.836Z,0.60
2023-05-10T23:02:50.566Z,0.80
2023-05-10T23:05:17.704Z,0.70
2023-05-10T23:07:44.247Z,0.80
2023-05-10T23:10:11.429Z,0.60
2023-05-10T23:12:38.324Z,0.65
2023-05-10T23:15:05.591Z,0.60
2023-05-10T23:17:32.108Z,0.52
2023-05-10T23:19:58.917Z,0.73
2023-05-10T23:22:25.558Z,0.60
2023-05-10T23:24:52.129Z,0.50
2023-05-10T23:27:18.850Z,0.50
2023-05-10T23:29:45.465Z,0.65
2023-05-10T23:32:12.038Z,0.50
2023-05-10T23:34:38.709Z,0.50
2023-05-10T23:37:06.129Z,0.30
2023-05-10T23:39:32.662Z,0.90
2023-05-10T23:41:59.314Z,0.50
2023-05-10T23:44:26.006Z,0.68
2023-05-10T23:46:52.831Z,0.50
2023-05-10T23:49:19.430Z,0.57
2023-05-10T23:51:46.166Z,0.60
2023-05-10T23:54:12.901Z,0.50
2023-05-10T23:56:39.494Z,0.50
2023-05-10T23:59:06.138Z,0.47
